createdAt,value
2022-09-30T00:01:25.638Z,49.50
2022-09-30T00:03:53.964Z,49.50
2022-09-30T00:06:20.993Z,49.50
2022-09-30T00:08:47.880Z,49.60
2022-09-30T00:11:17.649Z,49.60
2022-09-30T00:13:46.368Z,49.60
2022-09-30T00:16:14.495Z,49.60
2022-09-30T00:18:42.549Z,49.60
2022-09-30T00:21:10.517Z,49.60
2022-09-30T00:23:38.716Z,50.10
2022-09-30T00:26:08.048Z,49.70
2022-09-30T00:28:35.365Z,49.70
2022-09-30T00:31:05.276Z,50.10
2022-09-30T00:33:32.530Z,49.60
2022-09-30T00:35:59.397Z,49.60
2022-09-30T00:38:26.386Z,49.60
2022-09-30T00:40:54.008Z,49.60
2022-09-30T00:43:51.282Z,49.60
2022-09-30T00:46:43.637Z,49.80
2022-09-30T00:49:20.893Z,49.70
2022-09-30T00:51:52.098Z,49.60
2022-09-30T00:54:28.630Z,49.50
2022-09-30T00:57:00.356Z,49.60
2022-09-30T00:59:33.176Z,49.50
2022-09-30T01:02:01.486Z,49.50
2022-09-30T01:04:31.049Z,49.50
2022-09-30T01:07:04.557Z,49.40
2022-09-30T01:09:34.200Z,49.50
2022-09-30T01:12:05.310Z,49.40
2022-09-30T01:14:32.301Z,49.50
2022-09-30T01:17:17.069Z,49.40
2022-09-30T01:20:06.450Z,49.60
2022-09-30T01:22:54.374Z,49.60
2022-09-30T01:25:45.941Z,49.40
2022-09-30T01:28:42.761Z,49.50
2022-09-30T01:31:45.133Z,49.70
2022-09-30T01:34:20.813Z,49.70
2022-09-30T01:36:50.784Z,49.40
2022-09-30T01:39:51.209Z,49.40
2022-09-30T01:42:42.531Z,49.60
2022-09-30T01:45:28.216Z,49.50
2022-09-30T01:48:06.002Z,49.40
2022-09-30T01:50:52.012Z,49.30
2022-09-30T01:53:25.894Z,49.50
2022-09-30T01:56:02.485Z,49.40
2022-09-30T01:58:50.404Z,49.50
2022-09-30T02:01:25.382Z,49.70
2022-09-30T02:03:57.127Z,49.70
2022-09-30T02:06:31.832Z,49.70
2022-09-30T02:09:11.575Z,49.70
2022-09-30T02:11:40.587Z,49.80
2022-09-30T02:14:22.333Z,49.70
2022-09-30T02:16:52.468Z,49.80
2022-09-30T02:19:28.977Z,49.70
2022-09-30T02:21:59.956Z,49.80
2022-09-30T02:24:31.991Z,49.80
2022-09-30T02:27:01.722Z,49.80
2022-09-30T02:29:36.021Z,49.80
2022-09-30T02:32:13.310Z,49.70
2022-09-30T02:34:45.421Z,49.70
2022-09-30T02:37:20.052Z,49.60
2022-09-30T02:40:00.373Z,49.70
2022-09-30T02:42:30.186Z,49.80
2022-09-30T02:45:07.750Z,49.70
2022-09-30T02:47:49.576Z,49.70
2022-09-30T02:50:33.226Z,49.80
2022-09-30T02:53:24.521Z,49.70
2022-09-30T02:56:15.224Z,49.50
2022-09-30T02:58:43.415Z,49.60
2022-09-30T03:01:12.550Z,49.50
2022-09-30T03:03:41.816Z,49.50
2022-09-30T03:06:09.410Z,49.50
2022-09-30T03:08:37.004Z,49.50
2022-09-30T03:11:05.301Z,49.50
2022-09-30T03:13:46.156Z,49.60
2022-09-30T03:16:30.716Z,49.60
2022-09-30T03:19:25.114Z,49.70
2022-09-30T03:22:00.908Z,49.70
2022-09-30T03:24:53.693Z,49.70
2022-09-30T03:27:33.609Z,50.00
2022-09-30T03:30:13.730Z,50.20
2022-09-30T03:33:06.112Z,50.20
2022-09-30T03:35:32.925Z,50.40
2022-09-30T03:38:17.606Z,50.20
2022-09-30T03:41:25.737Z,50.20
2022-09-30T03:44:10.683Z,50.40
2022-09-30T03:46:44.936Z,50.20
2022-09-30T03:49:18.660Z,50.10
2022-09-30T03:51:45.826Z,50.00
2022-09-30T03:54:14.224Z,49.90
2022-09-30T03:56:44.365Z,49.90
2022-09-30T03:59:13.355Z,49.90
2022-09-30T04:01:40.043Z,49.80
2022-09-30T04:04:06.897Z,49.80
2022-09-30T04:06:34.251Z,49.90
2022-09-30T04:09:00.903Z,50.00
2022-09-30T04:11:27.667Z,50.00
2022-09-30T04:13:54.368Z,50.00
2022-09-30T04:16:21.359Z,50.00
2022-09-30T04:18:48.161Z,50.00
2022-09-30T04:21:15.876Z,50.00
2022-09-30T04:23:42.936Z,50.00
2022-09-30T04:26:14.885Z,50.10
2022-09-30T04:28:41.662Z,50.20
2022-09-30T04:31:10.223Z,50.20
2022-09-30T04:33:36.865Z,50.40
2022-09-30T04:36:04.303Z,50.40
2022-09-30T04:38:31.604Z,50.50
2022-09-30T04:41:01.576Z,50.60
2022-09-30T04:43:28.618Z,50.60
2022-09-30T04:45:55.563Z,50.60
2022-09-30T04:48:22.541Z,50.70
2022-09-30T04:50:50.310Z,50.80
2022-09-30T04:53:18.574Z,51.30
2022-09-30T04:55:46.290Z,50.90
2022-09-30T04:58:13.631Z,51.00
2022-09-30T05:00:40.873Z,51.00
2022-09-30T05:03:07.628Z,50.90
2022-09-30T05:05:34.645Z,51.00
2022-09-30T05:08:02.952Z,51.00
2022-09-30T05:10:30.442Z,51.00
2022-09-30T05:12:58.308Z,51.10
2022-09-30T05:15:25.723Z,51.10
2022-09-30T05:17:53.633Z,51.60
2022-09-30T05:20:21.480Z,51.20
2022-09-30T05:22:53.300Z,51.30
2022-09-30T05:25:20.042Z,51.30
2022-09-30T05:27:49.996Z,51.30
2022-09-30T05:30:17.307Z,51.40
2022-09-30T05:32:44.124Z,51.40
2022-09-30T05:35:12.156Z,51.40
2022-09-30T05:37:38.905Z,51.40
2022-09-30T05:40:06.657Z,51.50
2022-09-30T05:42:35.974Z,51.60
2022-09-30T05:45:06.585Z,51.50
2022-09-30T05:47:34.361Z,51.50
2022-09-30T05:50:01.211Z,51.50
2022-09-30T05:52:29.166Z,51.40
2022-09-30T05:54:57.826Z,51.20
2022-09-30T05:57:25.560Z,51.10
2022-09-30T05:59:52.193Z,51.10
2022-09-30T06:02:19.290Z,51.10
2022-09-30T06:04:46.957Z,51.10
2022-09-30T06:07:13.854Z,51.10
2022-09-30T06:09:40.816Z,51.10
2022-09-30T06:12:08.186Z,51.20
2022-09-30T06:14:34.959Z,51.30
2022-09-30T06:17:02.174Z,51.40
2022-09-30T06:19:30.218Z,51.40
2022-09-30T06:21:57.702Z,51.40
2022-09-30T06:24:24.764Z,51.50
2022-09-30T06:26:51.726Z,51.50
2022-09-30T06:29:19.493Z,51.60
2022-09-30T06:31:46.523Z,52.10
2022-09-30T06:34:13.764Z,51.70
2022-09-30T06:36:40.381Z,51.70
2022-09-30T06:39:10.251Z,51.70
2022-09-30T06:41:42.460Z,51.80
2022-09-30T06:44:12.521Z,51.80
2022-09-30T06:46:51.474Z,51.80
2022-09-30T06:49:21.258Z,51.90
2022-09-30T06:51:47.888Z,51.90
2022-09-30T06:54:14.557Z,51.80
2022-09-30T06:56:41.802Z,52.10
2022-09-30T06:59:08.655Z,51.50
2022-09-30T07:01:35.386Z,51.40
2022-09-30T07:04:07.888Z,51.50
2022-09-30T07:06:34.883Z,51.50
2022-09-30T07:09:01.552Z,51.60
2022-09-30T07:11:28.200Z,51.80
2022-09-30T07:13:55.535Z,51.80
2022-09-30T07:16:22.281Z,51.80
2022-09-30T07:18:49.057Z,51.90
2022-09-30T07:21:16.306Z,51.70
2022-09-30T07:23:47.872Z,51.70
2022-09-30T07:26:17.591Z,52.00
2022-09-30T07:28:45.012Z,52.30
2022-09-30T07:31:34.098Z,52.30
2022-09-30T07:34:03.522Z,52.50
2022-09-30T07:36:33.644Z,52.70
2022-09-30T07:39:05.362Z,52.90
2022-09-30T07:41:32.283Z,53.10
2022-09-30T07:43:59.600Z,53.00
2022-09-30T07:46:29.874Z,53.10
2022-09-30T07:49:02.205Z,53.10
2022-09-30T07:51:32.239Z,53.30
2022-09-30T07:54:02.205Z,53.80
2022-09-30T07:56:41.078Z,53.20
2022-09-30T07:59:17.187Z,53.10
2022-09-30T08:01:44.008Z,52.90
2022-09-30T08:04:12.069Z,52.90
2022-09-30T08:07:00.279Z,52.70
2022-09-30T08:09:29.372Z,52.70
2022-09-30T08:11:56.357Z,52.70
2022-09-30T08:14:25.824Z,52.80
2022-09-30T08:16:53.094Z,52.90
2022-09-30T08:19:23.200Z,52.70
2022-09-30T08:21:50.752Z,52.70
2022-09-30T08:24:17.445Z,53.40
2022-09-30T08:26:44.752Z,55.00
2022-09-30T08:29:20.134Z,56.80
2022-09-30T08:31:52.896Z,58.40
2022-09-30T08:34:19.730Z,59.40
2022-09-30T08:36:46.513Z,59.50
2022-09-30T08:39:13.773Z,58.70
2022-09-30T08:41:59.743Z,57.20
2022-09-30T08:44:41.124Z,53.80
2022-09-30T08:47:29.461Z,53.00
2022-09-30T08:50:17.477Z,51.40
2022-09-30T08:52:53.663Z,47.60
2022-09-30T08:55:41.989Z,47.20
2022-09-30T08:58:47.706Z,46.40
2022-09-30T09:01:17.093Z,44.10
2022-09-30T09:03:45.202Z,45.30
2022-09-30T09:06:33.282Z,45.80
2022-09-30T09:09:16.383Z,45.50
2022-09-30T09:12:06.222Z,43.30
2022-09-30T09:14:43.450Z,42.00
2022-09-30T09:17:47.042Z,42.90
2022-09-30T09:20:33.475Z,41.10
2022-09-30T09:23:03.677Z,41.30
2022-09-30T09:25:30.670Z,40.80
2022-09-30T09:28:02.932Z,40.60
2022-09-30T09:30:36.292Z,38.90
2022-09-30T09:33:26.174Z,38.00
2022-09-30T09:36:02.438Z,37.00
2022-09-30T09:38:55.546Z,36.90
2022-09-30T09:41:49.067Z,35.60
2022-09-30T09:44:28.371Z,35.20
2022-09-30T09:47:13.864Z,34.90
2022-09-30T09:49:58.886Z,34.60
2022-09-30T09:52:33.750Z,35.30
2022-09-30T09:55:00.801Z,35.10
2022-09-30T09:57:32.291Z,34.60
2022-09-30T10:00:23.844Z,34.10
2022-09-30T10:03:10.773Z,33.90
2022-09-30T10:05:40.974Z,32.30
2022-09-30T10:08:13.320Z,33.60
2022-09-30T10:10:52.373Z,32.50
2022-09-30T10:13:20.889Z,30.70
2022-09-30T10:15:48.852Z,31.80
2022-09-30T10:18:27.698Z,31.60
2022-09-30T10:20:57.811Z,30.60
2022-09-30T10:23:33.561Z,31.30
2022-09-30T10:26:15.611Z,30.20
2022-09-30T10:28:46.919Z,30.10
2022-09-30T10:31:26.691Z,30.00
2022-09-30T10:34:27.845Z,30.00
2022-09-30T10:36:56.281Z,30.10
2022-09-30T10:39:26.872Z,30.30
2022-09-30T10:42:04.943Z,29.40
2022-09-30T10:44:31.681Z,28.90
2022-09-30T10:47:02.683Z,29.30
2022-09-30T10:49:41.726Z,28.80
2022-09-30T10:52:18.976Z,28.30
2022-09-30T10:54:58.879Z,28.20
2022-09-30T10:57:32.220Z,28.50
2022-09-30T11:00:15.498Z,28.30
2022-09-30T11:02:58.822Z,27.50
2022-09-30T11:05:36.190Z,27.00
2022-09-30T11:08:14.679Z,27.20
2022-09-30T11:10:57.771Z,27.20
2022-09-30T11:13:47.829Z,27.40
2022-09-30T11:16:34.447Z,27.20
2022-09-30T11:19:07.595Z,27.70
2022-09-30T11:22:04.626Z,27.50
2022-09-30T11:24:50.213Z,27.30
2022-09-30T11:27:34.763Z,27.30
2022-09-30T11:30:35.651Z,27.10
2022-09-30T11:33:25.456Z,27.00
2022-09-30T11:36:01.095Z,27.20
2022-09-30T11:39:03.611Z,26.90
2022-09-30T11:42:11.644Z,25.90
2022-09-30T11:44:41.623Z,26.50
2022-09-30T11:47:23.729Z,26.70
2022-09-30T11:50:18.729Z,25.70
2022-09-30T11:53:20.310Z,26.00
2022-09-30T11:56:10.709Z,25.60
2022-09-30T11:58:42.894Z,25.60
2022-09-30T12:01:28.779Z,26.00
2022-09-30T12:04:19.338Z,25.60
2022-09-30T12:06:55.957Z,25.50
2022-09-30T12:09:27.471Z,25.60
2022-09-30T12:12:00.198Z,25.60
2022-09-30T12:14:35.583Z,25.70
2022-09-30T12:17:07.710Z,25.60
2022-09-30T12:19:46.869Z,25.50
2022-09-30T12:22:16.756Z,25.20
2022-09-30T12:24:45.711Z,25.70
2022-09-30T12:27:24.719Z,25.20
2022-09-30T12:30:18.852Z,24.50
2022-09-30T12:32:54.711Z,25.00
2022-09-30T12:35:36.438Z,25.10
2022-09-30T12:39:01.538Z,25.10
2022-09-30T12:41:48.195Z,25.20
2022-09-30T12:44:24.000Z,25.10
2022-09-30T12:46:50.663Z,25.00
2022-09-30T12:49:23.477Z,25.20
2022-09-30T12:51:54.811Z,25.00
2022-09-30T12:54:35.409Z,24.80
2022-09-30T12:57:07.561Z,24.90
2022-09-30T12:59:43.525Z,25.10
2022-09-30T13:02:36.764Z,25.10
2022-09-30T13:05:31.277Z,24.70
2022-09-30T13:08:06.866Z,25.20
2022-09-30T13:10:43.558Z,25.20
2022-09-30T13:13:10.428Z,25.20
2022-09-30T13:15:37.068Z,25.30
2022-09-30T13:18:26.728Z,25.50
2022-09-30T13:21:15.613Z,25.50
2022-09-30T13:23:48.976Z,25.70
2022-09-30T13:26:35.490Z,25.90
2022-09-30T13:29:02.570Z,25.80
2022-09-30T13:31:32.220Z,25.80
2022-09-30T13:34:02.009Z,25.70
2022-09-30T13:36:50.972Z,25.40
2022-09-30T13:39:31.654Z,24.70
2022-09-30T13:42:01.531Z,24.80
2022-09-30T13:45:04.147Z,25.00
2022-09-30T13:47:43.688Z,25.00
2022-09-30T13:50:16.110Z,25.20
2022-09-30T13:52:47.981Z,25.20
2022-09-30T13:55:22.510Z,24.90
2022-09-30T13:58:10.803Z,25.00
2022-09-30T14:00:58.445Z,25.20
2022-09-30T14:03:44.634Z,25.20
2022-09-30T14:06:36.982Z,25.20
2022-09-30T14:09:03.709Z,25.20
2022-09-30T14:11:42.361Z,25.40
2022-09-30T14:14:12.070Z,25.30
2022-09-30T14:17:00.852Z,25.20
2022-09-30T14:19:49.466Z,25.50
2022-09-30T14:22:16.929Z,25.40
2022-09-30T14:24:43.686Z,25.50
2022-09-30T14:27:36.018Z,25.50
2022-09-30T14:30:24.002Z,25.10
2022-09-30T14:33:03.618Z,25.30
2022-09-30T14:38:28.244Z,25.20
2022-09-30T14:40:57.901Z,25.30
2022-09-30T14:43:32.754Z,25.20
2022-09-30T14:46:10.900Z,25.20
2022-09-30T14:48:42.384Z,25.00
2022-09-30T14:51:13.076Z,24.80
2022-09-30T14:53:43.465Z,24.80
2022-09-30T14:56:22.520Z,24.80
2022-09-30T14:58:53.069Z,24.80
2022-09-30T15:01:25.709Z,24.80
2022-09-30T15:04:12.200Z,24.90
2022-09-30T15:06:43.271Z,24.90
2022-09-30T15:09:28.009Z,25.20
2022-09-30T15:11:55.293Z,25.10
2022-09-30T15:14:23.708Z,25.20
2022-09-30T15:16:53.672Z,25.30
2022-09-30T15:19:26.374Z,25.30
2022-09-30T15:22:02.215Z,25.10
2022-09-30T15:24:31.176Z,25.10
2022-09-30T15:26:59.987Z,25.30
2022-09-30T15:29:26.900Z,25.20
2022-09-30T15:31:58.717Z,25.30
2022-09-30T15:34:26.300Z,25.30
2022-09-30T15:37:10.541Z,25.30
2022-09-30T15:40:04.639Z,25.40
2022-09-30T15:42:35.310Z,25.30
2022-09-30T15:45:20.013Z,25.30
2022-09-30T15:48:02.422Z,25.50
2022-09-30T15:50:49.476Z,25.40
2022-09-30T15:53:18.234Z,25.70
2022-09-30T15:55:56.764Z,25.80
2022-09-30T15:58:26.706Z,25.80
2022-09-30T16:01:09.118Z,25.90
2022-09-30T16:03:36.482Z,26.00
2022-09-30T16:06:15.404Z,25.90
2022-09-30T16:08:48.709Z,26.00
2022-09-30T16:11:45.357Z,26.00
2022-09-30T16:14:27.479Z,26.10
2022-09-30T16:16:58.003Z,26.30
2022-09-30T16:19:26.154Z,26.20
2022-09-30T16:21:54.670Z,26.30
2022-09-30T16:24:21.363Z,26.40
2022-09-30T16:26:52.641Z,26.50
2022-09-30T16:29:19.565Z,26.70
2022-09-30T16:31:49.062Z,26.70
2022-09-30T16:34:25.295Z,26.90
2022-09-30T16:37:04.393Z,26.90
2022-09-30T16:39:31.507Z,27.00
2022-09-30T16:41:58.082Z,27.00
2022-09-30T16:44:24.907Z,26.90
2022-09-30T16:46:51.852Z,27.20
2022-09-30T16:49:19.624Z,27.30
2022-09-30T16:51:46.682Z,27.40
2022-09-30T16:54:13.547Z,27.60
2022-09-30T16:56:40.171Z,27.70
2022-09-30T16:59:17.177Z,27.80
2022-09-30T17:01:44.127Z,28.20
2022-09-30T17:04:14.006Z,28.10
2022-09-30T17:06:43.582Z,28.30
2022-09-30T17:09:10.201Z,28.50
2022-09-30T17:11:37.963Z,28.60
2022-09-30T17:14:05.525Z,28.90
2022-09-30T17:16:32.981Z,29.10
2022-09-30T17:18:59.946Z,29.30
2022-09-30T17:21:27.523Z,29.40
2022-09-30T17:23:55.526Z,29.60
2022-09-30T17:26:22.693Z,29.80
2022-09-30T17:28:49.322Z,29.90
2022-09-30T17:31:16.019Z,30.00
2022-09-30T17:33:42.908Z,30.00
2022-09-30T17:36:12.102Z,30.30
2022-09-30T17:38:39.557Z,30.50
2022-09-30T17:41:26.093Z,30.60
2022-09-30T17:43:52.878Z,30.90
2022-09-30T17:46:23.107Z,30.90
2022-09-30T17:48:54.418Z,31.30
2022-09-30T17:51:21.052Z,31.40
2022-09-30T17:53:48.226Z,31.50
2022-09-30T17:56:22.261Z,31.70
2022-09-30T17:58:51.157Z,32.10
2022-09-30T18:01:20.278Z,32.10
2022-09-30T18:03:47.369Z,32.20
2022-09-30T18:06:16.661Z,32.30
2022-09-30T18:08:43.655Z,32.60
2022-09-30T18:11:11.411Z,32.70
2022-09-30T18:13:38.002Z,32.80
2022-09-30T18:16:08.131Z,33.00
2022-09-30T18:18:36.246Z,33.30
2022-09-30T18:21:02.865Z,33.30
2022-09-30T18:23:29.533Z,33.50
2022-09-30T18:25:58.027Z,33.90
2022-09-30T18:28:24.787Z,33.70
2022-09-30T18:30:51.566Z,33.70
2022-09-30T18:33:21.533Z,34.10
2022-09-30T18:35:48.701Z,34.50
2022-09-30T18:38:15.363Z,34.50
2022-09-30T18:40:43.630Z,34.60
2022-09-30T18:43:13.933Z,34.80
2022-09-30T18:45:43.386Z,35.10
2022-09-30T18:48:10.881Z,35.10
2022-09-30T18:50:38.571Z,35.30
2022-09-30T18:53:09.618Z,35.40
2022-09-30T18:55:37.978Z,35.60
2022-09-30T18:58:05.163Z,35.70
2022-09-30T19:00:31.954Z,35.80
2022-09-30T19:02:58.584Z,36.00
2022-09-30T19:05:25.662Z,36.30
2022-09-30T19:07:53.997Z,36.50
2022-09-30T19:10:21.090Z,36.70
2022-09-30T19:12:48.112Z,36.80
2022-09-30T19:15:15.912Z,36.90
2022-09-30T19:17:43.610Z,36.90
2022-09-30T19:20:11.178Z,37.10
2022-09-30T19:22:37.812Z,37.10
2022-09-30T19:25:06.559Z,37.30
2022-09-30T19:27:35.661Z,37.50
2022-09-30T19:30:02.451Z,37.70
2022-09-30T19:32:34.182Z,38.40
2022-09-30T19:35:06.290Z,38.10
2022-09-30T19:37:34.205Z,38.30
2022-09-30T19:40:12.431Z,38.30
2022-09-30T19:42:47.444Z,38.30
2022-09-30T19:45:16.066Z,39.10
2022-09-30T19:47:42.764Z,39.20
2022-09-30T19:50:09.645Z,38.80
2022-09-30T19:52:42.069Z,38.80
2022-09-30T19:55:16.863Z,38.90
2022-09-30T19:57:43.897Z,38.80
2022-09-30T20:00:12.852Z,39.10
2022-09-30T20:02:39.654Z,39.50
2022-09-30T20:05:07.257Z,39.80
2022-09-30T20:07:34.945Z,39.50
2022-09-30T20:10:01.775Z,39.30
2022-09-30T20:12:28.999Z,39.80
2022-09-30T20:15:14.301Z,39.90
2022-09-30T20:17:40.978Z,40.00
2022-09-30T20:20:26.583Z,40.10
2022-09-30T20:22:53.240Z,40.00
2022-09-30T20:25:20.155Z,40.50
2022-09-30T20:27:51.330Z,40.20
2022-09-30T20:30:19.766Z,40.30
2022-09-30T20:32:46.400Z,40.30
2022-09-30T20:35:13.299Z,41.10
2022-09-30T20:37:40.859Z,40.60
2022-09-30T20:40:09.367Z,40.30
2022-09-30T20:42:38.751Z,40.50
2022-09-30T20:45:10.184Z,40.80
2022-09-30T20:47:38.450Z,40.70
2022-09-30T20:50:06.705Z,41.20
2022-09-30T20:52:33.648Z,40.80
2022-09-30T20:55:00.449Z,40.80
2022-09-30T20:57:31.306Z,41.00
2022-09-30T21:00:01.732Z,41.30
2022-09-30T21:02:28.885Z,41.10
2022-09-30T21:04:57.526Z,41.00
2022-09-30T21:07:25.215Z,40.90
2022-09-30T21:09:51.993Z,41.10
2022-09-30T21:12:18.908Z,41.20
2022-09-30T21:14:45.994Z,41.50
2022-09-30T21:17:12.646Z,41.20
2022-09-30T21:19:39.852Z,41.60
2022-09-30T21:22:07.088Z,41.70
2022-09-30T21:24:33.820Z,41.50
2022-09-30T21:27:01.467Z,41.40
2022-09-30T21:29:30.482Z,41.40
2022-09-30T21:31:57.226Z,41.30
2022-09-30T21:34:24.424Z,41.30
2022-09-30T21:36:51.409Z,41.80
2022-09-30T21:39:18.014Z,41.40
2022-09-30T21:41:45.555Z,41.30
2022-09-30T21:44:12.388Z,41.40
2022-09-30T21:46:39.118Z,41.30
2022-09-30T21:49:19.246Z,41.20
2022-09-30T21:51:46.755Z,41.80
2022-09-30T21:54:13.698Z,41.30
2022-09-30T21:56:42.269Z,41.40
2022-09-30T21:59:09.177Z,41.40
2022-09-30T22:01:37.339Z,41.40
2022-09-30T22:04:05.313Z,41.30
2022-09-30T22:06:32.384Z,41.30
2022-09-30T22:09:02.441Z,41.50
2022-09-30T22:11:31.091Z,41.60
2022-09-30T22:13:59.754Z,41.70
2022-09-30T22:16:29.715Z,41.70
2022-09-30T22:19:00.200Z,41.70
2022-09-30T22:21:33.479Z,41.70
2022-09-30T22:24:02.102Z,41.90
2022-09-30T22:26:30.002Z,41.80
2022-09-30T22:29:02.855Z,41.80
2022-09-30T22:31:31.979Z,42.10
2022-09-30T22:34:20.252Z,42.00
2022-09-30T22:37:05.500Z,42.00
2022-09-30T22:39:32.697Z,42.00
2022-09-30T22:42:00.124Z,42.10
2022-09-30T22:44:31.382Z,42.20
2022-09-30T22:47:00.282Z,42.20
2022-09-30T22:49:28.478Z,42.20
2022-09-30T22:51:56.405Z,42.40
2022-09-30T22:54:24.326Z,42.50
2022-09-30T22:56:50.987Z,42.50
2022-09-30T22:59:19.213Z,42.50
2022-09-30T23:01:46.832Z,42.60
2022-09-30T23:04:17.243Z,42.70
2022-09-30T23:06:46.486Z,42.80
2022-09-30T23:09:13.208Z,42.80
2022-09-30T23:11:42.170Z,42.80
2022-09-30T23:14:09.286Z,42.90
2022-09-30T23:16:36.030Z,43.00
2022-09-30T23:19:02.950Z,43.20
2022-09-30T23:21:29.709Z,43.30
2022-09-30T23:23:56.601Z,43.40
2022-09-30T23:26:25.371Z,43.20
2022-09-30T23:28:56.326Z,43.30
2022-09-30T23:31:23.145Z,43.40
2022-09-30T23:33:52.651Z,43.40
2022-09-30T23:36:29.127Z,43.50
2022-09-30T23:39:18.191Z,43.60
2022-09-30T23:41:46.478Z,44.00
2022-09-30T23:44:15.578Z,43.50
2022-09-30T23:47:02.364Z,43.60
2022-09-30T23:49:33.268Z,43.60
2022-09-30T23:51:59.874Z,43.50
2022-09-30T23:54:26.441Z,43.50
2022-09-30T23:56:53.314Z,43.50
2022-09-30T23:59:20.104Z,43.60
